Vernon, TX

6:41 PM CST on February 28, 2015 (GMT -0600)
Vernon | Change Station
CLOSE
Current Station
Airport
Location: Vernon,
Elevation: 1266 ft
Nearby Weather Stations
Active Advisory: Winter Weather Advisory Active Notice: Record Report

Elev 1266 ft 34.23 °N, 99.28 °W | Updated 6 minutes ago

Overcast
Overcast
27 °F
Feels Like 23 °F
N
4
Wind Variable Wind from NE

Today
High -- | Low -- °F
--% Chance of Precip.
Yesterday
High -- | Low -- °F
Precip. -- in
7:07 AM 6:32 PM
Waxing Gibbous, 81% visible
Pressure 30.30 in
Visibility 2.5 miles
Clouds Overcast 500 ft
Windchill 23 °F
Dew Point 23 °F
Humidity 84%
Rainfall 0.00 in
Snow Depth Not available.
UV 0 out of 12
Pollen 1.20 out of 12
Air Quality Not available.
Flu Activity Not available.
METAR KF05 010035Z AUTO 04003KT 2 1/2SM OVC005 M03/M05 A3030 RMK AO1 T10261050

More Conditions Fewer Conditions

Pressure 30.30 in
Visibility 2.5 miles
Clouds Overcast 500 ft
Windchill 23 °F
Dew Point 23 °F
Humidity 84%
Rainfall 0.00 in
Snow Depth Not available.
UV 0 out of 12
Pollen 1.20 out of 12
Air Quality Not available.
Flu Activity Not available.
METAR KF05 010035Z AUTO 04003KT 2 1/2SM OVC005 M03/M05 A3030 RMK AO1 T10261050

More Conditions Fewer Conditions

10-Day Weather Forecast

Almanac

Astronomy

Feb. 28, 2015 Rise Set
Actual Time
Civil Twilight
Nautical Twilight
Astronomical Twilight
Moon
Length of Visible Light
Length of Day
Tomorrow will be .
, % of the Moon is Illuminated

Today's Extremes

State Highs State Lows

Community

WunderPhotos

Upload Photos

1,801,194 photos uploaded!

WunderBlogs® & News

Nearby

Air Quality

  Air Quality AQ Index Pollutant
Not available.

Snow Depth

Station Depth Elevation

Earthquake Activity

City Distance Mag. Time & Date
Minimum magnitude displayed is 2.5.

Coastal Water Temperatures

Place Temperature

Nearby Weather Stations

Winter Weather Advisory
Statement as of 3:13 PM CST on February 28, 2015

... Winter Weather Advisory now in effect until 6 am CST Sunday...

The Winter Weather Advisory is now in effect until 6 am CST
Sunday.

* Main impact: patchy freezing drizzle and passing light freezing
rain showers will be possible through the night.

* Roads and walkways: roads and walkways will be slick and
hazardous.

Precautionary/preparedness actions...

Be careful if you have to travel. Even small amounts of ice and
snow can make roads and sidewalks slick and dangerous.